Genoa Bluff, Iowa
Current Conditions -  °F | °C
As of 7:52 AM on Friday 24 Oct 2014 (Local Time) from KCID Reporting Station
Moderate Fog Moderate Fog  
Wind Chill: 41°   Ceiling: 100
Heat Index: 45°   Visibility: 0.06mi
Dew Point: 45°   Wind: 7mph
Humidity: 100%   Direction: 170°S
Pressure: 30.03"   Gusts: NA
Location:  41.7846°N, 92.1025°W
Report Text: KCID 241252Z 17006KT 1/16SM FG VV001 07/07 A3003 RMK AO2 SLP172 T00720072
Loading
Personal Weather Stations






























Interactive Weather Map
Tropical Storm Tracking
New forecast layout! Learn more

10-Day Weather Forecast

Advertisements
Track Severe Weather on mobile